sensor_id;sensor_type;location;lat;lon;timestamp;temperature;humidity
6627;DHT22;3349;49.830;8.748;2022-08-02T00:01:52;20.00;81.80
6627;DHT22;3349;49.830;8.748;2022-08-02T00:04:19;20.00;82.50
6627;DHT22;3349;49.830;8.748;2022-08-02T00:06:47;19.90;82.90
6627;DHT22;3349;49.830;8.748;2022-08-02T00:09:15;19.90;84.10
6627;DHT22;3349;49.830;8.748;2022-08-02T00:11:41;19.80;84.40
6627;DHT22;3349;49.830;8.748;2022-08-02T00:14:08;19.80;85.30
6627;DHT22;3349;49.830;8.748;2022-08-02T00:16:35;19.70;85.70
6627;DHT22;3349;49.830;8.748;2022-08-02T00:19:02;19.70;86.00
6627;DHT22;3349;49.830;8.748;2022-08-02T00:21:29;19.70;86.60
6627;DHT22;3349;49.830;8.748;2022-08-02T00:23:57;19.70;86.60
6627;DHT22;3349;49.830;8.748;2022-08-02T00:26:24;19.70;86.10
6627;DHT22;3349;49.830;8.748;2022-08-02T00:28:51;19.70;85.70
6627;DHT22;3349;49.830;8.748;2022-08-02T00:31:18;19.70;86.20
6627;DHT22;3349;49.830;8.748;2022-08-02T00:33:45;19.70;86.80
6627;DHT22;3349;49.830;8.748;2022-08-02T00:36:11;19.70;86.20
6627;DHT22;3349;49.830;8.748;2022-08-02T00:38:38;19.70;86.10
6627;DHT22;3349;49.830;8.748;2022-08-02T00:41:11;19.70;86.20
6627;DHT22;3349;49.830;8.748;2022-08-02T00:43:38;19.70;86.60
6627;DHT22;3349;49.830;8.748;2022-08-02T00:46:05;19.60;86.60
6627;DHT22;3349;49.830;8.748;2022-08-02T00:48:31;19.60;88.00
6627;DHT22;3349;49.830;8.748;2022-08-02T00:50:58;19.50;87.70
6627;DHT22;3349;49.830;8.748;2022-08-02T00:53:25;19.50;88.10
6627;DHT22;3349;49.830;8.748;2022-08-02T00:55:53;19.40;88.20
6627;DHT22;3349;49.830;8.748;2022-08-02T00:58:22;19.40;88.50
6627;DHT22;3349;49.830;8.748;2022-08-02T01:00:49;19.30;89.20
6627;DHT22;3349;49.830;8.748;2022-08-02T01:03:16;19.30;90.00
6627;DHT22;3349;49.830;8.748;2022-08-02T01:05:43;19.30;90.10
6627;DHT22;3349;49.830;8.748;2022-08-02T01:08:09;19.40;90.40
6627;DHT22;3349;49.830;8.748;2022-08-02T01:10:36;19.30;90.10
6627;DHT22;3349;49.830;8.748;2022-08-02T01:13:03;19.30;90.60
6627;DHT22;3349;49.830;8.748;2022-08-02T01:15:33;19.20;90.30
6627;DHT22;3349;49.830;8.748;2022-08-02T01:18:04;19.20;90.80
6627;DHT22;3349;49.830;8.748;2022-08-02T01:20:56;19.10;90.90
6627;DHT22;3349;49.830;8.748;2022-08-02T01:23:37;19.00;90.90
6627;DHT22;3349;49.830;8.748;2022-08-02T01:26:22;19.00;91.50
6627;DHT22;3349;49.830;8.748;2022-08-02T01:28:59;18.90;91.60
6627;DHT22;3349;49.830;8.748;2022-08-02T01:31:31;18.90;92.10
6627;DHT22;3349;49.830;8.748;2022-08-02T01:34:02;18.90;92.00
6627;DHT22;3349;49.830;8.748;2022-08-02T01:36:33;18.80;91.80
6627;DHT22;3349;49.830;8.748;2022-08-02T01:39:02;18.80;91.90
6627;DHT22;3349;49.830;8.748;2022-08-02T01:41:31;18.80;92.00
6627;DHT22;3349;49.830;8.748;2022-08-02T01:44:01;18.80;92.20
6627;DHT22;3349;49.830;8.748;2022-08-02T01:46:29;18.80;92.00
6627;DHT22;3349;49.830;8.748;2022-08-02T01:49:00;18.80;92.00
6627;DHT22;3349;49.830;8.748;2022-08-02T01:51:28;18.80;92.10
6627;DHT22;3349;49.830;8.748;2022-08-02T01:54:15;18.70;92.10
6627;DHT22;3349;49.830;8.748;2022-08-02T01:56:43;18.60;92.20
6627;DHT22;3349;49.830;8.748;2022-08-02T01:59:16;18.60;92.50
6627;DHT22;3349;49.830;8.748;2022-08-02T02:01:45;18.50;92.60
6627;DHT22;3349;49.830;8.748;2022-08-02T02:04:14;18.50;92.70
6627;DHT22;3349;49.830;8.748;2022-08-02T02:06:42;18.50;93.00
6627;DHT22;3349;49.830;8.748;2022-08-02T02:09:10;18.40;93.20
6627;DHT22;3349;49.830;8.748;2022-08-02T02:11:39;18.40;93.30
6627;DHT22;3349;49.830;8.748;2022-08-02T02:14:07;18.40;93.50
6627;DHT22;3349;49.830;8.748;2022-08-02T02:16:37;18.30;93.50
6627;DHT22;3349;49.830;8.748;2022-08-02T02:19:06;18.30;93.90
6627;DHT22;3349;49.830;8.748;2022-08-02T02:21:35;18.30;94.10
6627;DHT22;3349;49.830;8.748;2022-08-02T02:24:03;18.20;94.30
6627;DHT22;3349;49.830;8.748;2022-08-02T02:26:30;18.20;94.30
6627;DHT22;3349;49.830;8.748;2022-08-02T02:28:58;18.20;94.40
6627;DHT22;3349;49.830;8.748;2022-08-02T02:31:28;18.20;94.40
6627;DHT22;3349;49.830;8.748;2022-08-02T02:34:03;18.10;94.50
6627;DHT22;3349;49.830;8.748;2022-08-02T02:36:32;18.00;94.80
6627;DHT22;3349;49.830;8.748;2022-08-02T02:39:02;18.00;94.80
6627;DHT22;3349;49.830;8.748;2022-08-02T02:41:29;18.00;95.30
6627;DHT22;3349;49.830;8.748;2022-08-02T02:44:00;18.00;95.20
6627;DHT22;3349;49.830;8.748;2022-08-02T02:46:29;17.90;95.30
6627;DHT22;3349;49.830;8.748;2022-08-02T02:48:58;17.80;95.90
6627;DHT22;3349;49.830;8.748;2022-08-02T02:51:25;17.80;96.10
6627;DHT22;3349;49.830;8.748;2022-08-02T02:53:53;17.80;96.40
6627;DHT22;3349;49.830;8.748;2022-08-02T02:56:21;17.70;96.50
6627;DHT22;3349;49.830;8.748;2022-08-02T02:58:49;17.70;96.80
6627;DHT22;3349;49.830;8.748;2022-08-02T03:01:17;17.70;96.80
6627;DHT22;3349;49.830;8.748;2022-08-02T03:03:54;17.70;96.80
6627;DHT22;3349;49.830;8.748;2022-08-02T03:06:22;17.60;96.90
6627;DHT22;3349;49.830;8.748;2022-08-02T03:08:49;17.60;96.90
6627;DHT22;3349;49.830;8.748;2022-08-02T03:11:16;17.60;96.90
6627;DHT22;3349;49.830;8.748;2022-08-02T03:13:43;17.60;97.20
6627;DHT22;3349;49.830;8.748;2022-08-02T03:16:11;17.50;97.20
6627;DHT22;3349;49.830;8.748;2022-08-02T03:18:40;17.50;97.40
6627;DHT22;3349;49.830;8.748;2022-08-02T03:21:08;17.50;97.70
6627;DHT22;3349;49.830;8.748;2022-08-02T03:23:38;17.40;97.80
6627;DHT22;3349;49.830;8.748;2022-08-02T03:26:05;17.40;97.80
6627;DHT22;3349;49.830;8.748;2022-08-02T03:28:32;17.40;97.70
6627;DHT22;3349;49.830;8.748;2022-08-02T03:30:59;17.30;97.80
6627;DHT22;3349;49.830;8.748;2022-08-02T03:33:27;17.30;98.00
6627;DHT22;3349;49.830;8.748;2022-08-02T03:35:56;17.30;98.40
6627;DHT22;3349;49.830;8.748;2022-08-02T03:38:24;17.20;98.50
6627;DHT22;3349;49.830;8.748;2022-08-02T03:40:53;17.20;98.70
6627;DHT22;3349;49.830;8.748;2022-08-02T03:43:22;17.20;99.00
6627;DHT22;3349;49.830;8.748;2022-08-02T03:45:50;17.20;98.90
6627;DHT22;3349;49.830;8.748;2022-08-02T03:48:17;17.10;99.20
6627;DHT22;3349;49.830;8.748;2022-08-02T03:50:46;17.10;99.00
6627;DHT22;3349;49.830;8.748;2022-08-02T03:53:13;17.10;99.10
6627;DHT22;3349;49.830;8.748;2022-08-02T03:55:41;17.10;98.80
6627;DHT22;3349;49.830;8.748;2022-08-02T03:58:16;17.00;98.90
6627;DHT22;3349;49.830;8.748;2022-08-02T04:00:43;17.00;99.50
6627;DHT22;3349;49.830;8.748;2022-08-02T04:03:10;17.00;99.50
6627;DHT22;3349;49.830;8.748;2022-08-02T04:05:36;17.00;99.80
6627;DHT22;3349;49.830;8.748;2022-08-02T04:08:04;17.00;99.60
6627;DHT22;3349;49.830;8.748;2022-08-02T04:10:30;17.00;99.50
6627;DHT22;3349;49.830;8.748;2022-08-02T04:13:19;17.00;99.50
6627;DHT22;3349;49.830;8.748;2022-08-02T04:15:49;16.90;99.50
6627;DHT22;3349;49.830;8.748;2022-08-02T04:18:21;17.00;99.50
6627;DHT22;3349;49.830;8.748;2022-08-02T04:20:51;17.00;99.80
6627;DHT22;3349;49.830;8.748;2022-08-02T04:23:19;16.90;99.80
6627;DHT22;3349;49.830;8.748;2022-08-02T04:25:49;16.90;99.90
6627;DHT22;3349;49.830;8.748;2022-08-02T04:28:16;16.90;99.90
6627;DHT22;3349;49.830;8.748;2022-08-02T04:30:45;16.90;99.90
6627;DHT22;3349;49.830;8.748;2022-08-02T04:33:13;16.90;99.90
6627;DHT22;3349;49.830;8.748;2022-08-02T04:35:39;16.90;99.90
6627;DHT22;3349;49.830;8.748;2022-08-02T04:38:06;16.90;99.90
6627;DHT22;3349;49.830;8.748;2022-08-02T04:40:34;16.90;99.90
6627;DHT22;3349;49.830;8.748;2022-08-02T04:43:01;16.90;99.90
6627;DHT22;3349;49.830;8.748;2022-08-02T04:45:29;16.90;99.90
6627;DHT22;3349;49.830;8.748;2022-08-02T04:47:59;16.90;99.90
6627;DHT22;3349;49.830;8.748;2022-08-02T04:50:26;16.90;99.90
6627;DHT22;3349;49.830;8.748;2022-08-02T04:52:52;16.80;99.90
6627;DHT22;3349;49.830;8.748;2022-08-02T04:55:19;16.90;99.90
6627;DHT22;3349;49.830;8.748;2022-08-02T04:57:47;16.90;99.90
6627;DHT22;3349;49.830;8.748;2022-08-02T05:00:23;16.90;99.90
6627;DHT22;3349;49.830;8.748;2022-08-02T05:02:50;16.90;99.90
6627;DHT22;3349;49.830;8.748;2022-08-02T05:05:18;16.90;99.90
6627;DHT22;3349;49.830;8.748;2022-08-02T05:07:46;16.90;99.90
6627;DHT22;3349;49.830;8.748;2022-08-02T05:10:13;17.00;99.90
6627;DHT22;3349;49.830;8.748;2022-08-02T05:12:40;17.10;99.90
6627;DHT22;3349;49.830;8.748;2022-08-02T05:15:08;17.10;99.90
6627;DHT22;3349;49.830;8.748;2022-08-02T05:17:34;17.30;99.90
6627;DHT22;3349;49.830;8.748;2022-08-02T05:20:01;17.50;99.90
6627;DHT22;3349;49.830;8.748;2022-08-02T05:22:29;17.60;99.90
6627;DHT22;3349;49.830;8.748;2022-08-02T05:24:56;17.70;99.90
6627;DHT22;3349;49.830;8.748;2022-08-02T05:27:23;17.90;99.90
6627;DHT22;3349;49.830;8.748;2022-08-02T05:29:50;18.00;99.80
6627;DHT22;3349;49.830;8.748;2022-08-02T05:32:19;18.10;99.30
6627;DHT22;3349;49.830;8.748;2022-08-02T05:34:46;18.10;98.70
6627;DHT22;3349;49.830;8.748;2022-08-02T05:37:12;18.20;98.20
6627;DHT22;3349;49.830;8.748;2022-08-02T05:39:40;18.30;97.70
6627;DHT22;3349;49.830;8.748;2022-08-02T05:42:07;18.30;97.60
6627;DHT22;3349;49.830;8.748;2022-08-02T05:44:34;18.30;97.50
6627;DHT22;3349;49.830;8.748;2022-08-02T05:47:01;18.40;97.50
6627;DHT22;3349;49.830;8.748;2022-08-02T05:49:27;18.40;97.70
6627;DHT22;3349;49.830;8.748;2022-08-02T05:51:59;18.40;98.00
6627;DHT22;3349;49.830;8.748;2022-08-02T05:54:34;18.40;98.70
6627;DHT22;3349;49.830;8.748;2022-08-02T05:57:05;18.50;99.10
6627;DHT22;3349;49.830;8.748;2022-08-02T05:59:46;18.50;99.40
6627;DHT22;3349;49.830;8.748;2022-08-02T06:02:35;18.60;99.40
6627;DHT22;3349;49.830;8.748;2022-08-02T06:05:04;18.60;99.00
6627;DHT22;3349;49.830;8.748;2022-08-02T06:07:36;18.70;99.00
6627;DHT22;3349;49.830;8.748;2022-08-02T06:10:04;18.80;99.40
6627;DHT22;3349;49.830;8.748;2022-08-02T06:12:40;18.90;99.50
6627;DHT22;3349;49.830;8.748;2022-08-02T06:15:13;19.00;99.20
6627;DHT22;3349;49.830;8.748;2022-08-02T06:17:41;19.10;98.50
6627;DHT22;3349;49.830;8.748;2022-08-02T06:20:09;19.30;97.60
6627;DHT22;3349;49.830;8.748;2022-08-02T06:22:39;19.40;96.80
6627;DHT22;3349;49.830;8.748;2022-08-02T06:25:07;19.50;96.10
6627;DHT22;3349;49.830;8.748;2022-08-02T06:27:36;19.70;95.20
6627;DHT22;3349;49.830;8.748;2022-08-02T06:30:04;20.00;93.60
6627;DHT22;3349;49.830;8.748;2022-08-02T06:32:32;20.20;92.80
6627;DHT22;3349;49.830;8.748;2022-08-02T06:34:58;20.50;91.00
6627;DHT22;3349;49.830;8.748;2022-08-02T06:40:00;20.70;87.60
6627;DHT22;3349;49.830;8.748;2022-08-02T06:42:39;20.90;86.80
6627;DHT22;3349;49.830;8.748;2022-08-02T06:45:08;21.10;85.60
6627;DHT22;3349;49.830;8.748;2022-08-02T06:47:35;21.20;84.00
6627;DHT22;3349;49.830;8.748;2022-08-02T06:50:01;21.30;82.50
6627;DHT22;3349;49.830;8.748;2022-08-02T06:52:28;21.60;80.30
6627;DHT22;3349;49.830;8.748;2022-08-02T06:54:57;21.70;79.00
6627;DHT22;3349;49.830;8.748;2022-08-02T06:57:24;21.80;74.90
6627;DHT22;3349;49.830;8.748;2022-08-02T06:59:52;21.90;75.50
6627;DHT22;3349;49.830;8.748;2022-08-02T07:02:19;22.00;74.40
6627;DHT22;3349;49.830;8.748;2022-08-02T07:04:46;22.10;72.70
6627;DHT22;3349;49.830;8.748;2022-08-02T07:07:13;22.00;72.00
6627;DHT22;3349;49.830;8.748;2022-08-02T07:09:39;22.00;72.00
6627;DHT22;3349;49.830;8.748;2022-08-02T07:12:06;22.10;70.80
6627;DHT22;3349;49.830;8.748;2022-08-02T07:14:33;22.10;69.00
6627;DHT22;3349;49.830;8.748;2022-08-02T07:17:01;22.20;68.00
6627;DHT22;3349;49.830;8.748;2022-08-02T07:19:28;22.40;67.00
6627;DHT22;3349;49.830;8.748;2022-08-02T07:21:55;22.50;66.50
6627;DHT22;3349;49.830;8.748;2022-08-02T07:24:22;22.50;66.80
6627;DHT22;3349;49.830;8.748;2022-08-02T07:26:49;22.70;66.30
6627;DHT22;3349;49.830;8.748;2022-08-02T07:29:15;22.90;65.00
6627;DHT22;3349;49.830;8.748;2022-08-02T07:31:42;23.00;63.70
6627;DHT22;3349;49.830;8.748;2022-08-02T07:34:10;23.50;62.40
6627;DHT22;3349;49.830;8.748;2022-08-02T07:36:37;24.60;58.50
6627;DHT22;3349;49.830;8.748;2022-08-02T07:39:04;25.30;53.30
6627;DHT22;3349;49.830;8.748;2022-08-02T07:41:30;26.20;51.30
6627;DHT22;3349;49.830;8.748;2022-08-02T07:43:57;27.20;47.70
6627;DHT22;3349;49.830;8.748;2022-08-02T07:46:24;28.00;44.90
6627;DHT22;3349;49.830;8.748;2022-08-02T07:48:51;29.00;41.60
6627;DHT22;3349;49.830;8.748;2022-08-02T07:51:20;29.90;38.00
6627;DHT22;3349;49.830;8.748;2022-08-02T07:53:47;30.70;31.30
6627;DHT22;3349;49.830;8.748;2022-08-02T07:56:14;30.20;31.40
6627;DHT22;3349;49.830;8.748;2022-08-02T07:58:40;30.10;31.30
6627;DHT22;3349;49.830;8.748;2022-08-02T08:01:08;30.30;32.00
6627;DHT22;3349;49.830;8.748;2022-08-02T08:03:35;30.00;31.80
6627;DHT22;3349;49.830;8.748;2022-08-02T08:06:02;29.90;32.00
6627;DHT22;3349;49.830;8.748;2022-08-02T08:08:30;30.60;31.80
6627;DHT22;3349;49.830;8.748;2022-08-02T08:10:57;31.40;29.80
6627;DHT22;3349;49.830;8.748;2022-08-02T08:13:24;31.90;28.50
6627;DHT22;3349;49.830;8.748;2022-08-02T08:15:50;31.90;29.70
6627;DHT22;3349;49.830;8.748;2022-08-02T08:18:17;32.10;28.70
6627;DHT22;3349;49.830;8.748;2022-08-02T08:20:44;32.00;28.20
6627;DHT22;3349;49.830;8.748;2022-08-02T08:23:11;32.60;27.70
6627;DHT22;3349;49.830;8.748;2022-08-02T08:25:39;33.50;27.80
6627;DHT22;3349;49.830;8.748;2022-08-02T08:28:06;33.70;27.70
6627;DHT22;3349;49.830;8.748;2022-08-02T08:30:33;34.50;26.80
6627;DHT22;3349;49.830;8.748;2022-08-02T08:33:00;34.80;27.00
6627;DHT22;3349;49.830;8.748;2022-08-02T08:35:27;35.40;24.90
6627;DHT22;3349;49.830;8.748;2022-08-02T08:37:54;36.80;23.80
6627;DHT22;3349;49.830;8.748;2022-08-02T08:40:20;37.20;22.10
6627;DHT22;3349;49.830;8.748;2022-08-02T08:42:49;36.20;23.00
6627;DHT22;3349;49.830;8.748;2022-08-02T08:45:15;36.30;22.30
6627;DHT22;3349;49.830;8.748;2022-08-02T08:47:43;35.60;23.30
6627;DHT22;3349;49.830;8.748;2022-08-02T08:50:18;35.90;23.40
6627;DHT22;3349;49.830;8.748;2022-08-02T08:52:48;36.20;23.00
6627;DHT22;3349;49.830;8.748;2022-08-02T08:55:22;36.40;22.70
6627;DHT22;3349;49.830;8.748;2022-08-02T08:57:50;36.30;22.40
6627;DHT22;3349;49.830;8.748;2022-08-02T09:00:18;36.80;22.10
6627;DHT22;3349;49.830;8.748;2022-08-02T09:02:45;37.10;22.20
6627;DHT22;3349;49.830;8.748;2022-08-02T09:05:14;36.80;21.20
6627;DHT22;3349;49.830;8.748;2022-08-02T09:07:42;36.30;21.60
6627;DHT22;3349;49.830;8.748;2022-08-02T09:10:35;35.90;21.30
6627;DHT22;3349;49.830;8.748;2022-08-02T09:13:15;36.80;21.40
6627;DHT22;3349;49.830;8.748;2022-08-02T09:15:44;37.80;20.90
6627;DHT22;3349;49.830;8.748;2022-08-02T09:18:11;39.10;19.50
6627;DHT22;3349;49.830;8.748;2022-08-02T09:20:52;39.10;19.20
6627;DHT22;3349;49.830;8.748;2022-08-02T09:23:19;39.80;18.70
6627;DHT22;3349;49.830;8.748;2022-08-02T09:25:55;39.60;18.00
6627;DHT22;3349;49.830;8.748;2022-08-02T09:28:28;39.00;18.80
6627;DHT22;3349;49.830;8.748;2022-08-02T09:30:57;39.30;19.10
6627;DHT22;3349;49.830;8.748;2022-08-02T09:33:25;39.20;18.90
6627;DHT22;3349;49.830;8.748;2022-08-02T09:35:59;40.00;18.10
6627;DHT22;3349;49.830;8.748;2022-08-02T09:38:26;39.80;18.20
6627;DHT22;3349;49.830;8.748;2022-08-02T09:40:53;39.10;18.60
6627;DHT22;3349;49.830;8.748;2022-08-02T09:43:21;40.90;18.10
6627;DHT22;3349;49.830;8.748;2022-08-02T09:45:49;40.60;17.10
6627;DHT22;3349;49.830;8.748;2022-08-02T09:48:15;40.40;17.80
6627;DHT22;3349;49.830;8.748;2022-08-02T09:50:43;40.10;17.50
6627;DHT22;3349;49.830;8.748;2022-08-02T09:53:11;38.70;18.80
6627;DHT22;3349;49.830;8.748;2022-08-02T09:55:39;38.70;19.10
6627;DHT22;3349;49.830;8.748;2022-08-02T09:58:19;40.10;18.50
6627;DHT22;3349;49.830;8.748;2022-08-02T10:00:55;40.30;17.60
6627;DHT22;3349;49.830;8.748;2022-08-02T10:03:23;40.90;17.10
6627;DHT22;3349;49.830;8.748;2022-08-02T10:05:51;39.40;17.90
6627;DHT22;3349;49.830;8.748;2022-08-02T10:08:20;39.60;18.40
6627;DHT22;3349;49.830;8.748;2022-08-02T10:10:47;40.40;17.20
6627;DHT22;3349;49.830;8.748;2022-08-02T10:13:25;40.90;17.70
6627;DHT22;3349;49.830;8.748;2022-08-02T10:15:54;40.70;17.00
6627;DHT22;3349;49.830;8.748;2022-08-02T10:18:21;41.50;16.60
6627;DHT22;3349;49.830;8.748;2022-08-02T10:20:49;41.70;16.30
6627;DHT22;3349;49.830;8.748;2022-08-02T10:23:19;41.10;16.40
6627;DHT22;3349;49.830;8.748;2022-08-02T10:25:47;41.10;16.50
6627;DHT22;3349;49.830;8.748;2022-08-02T10:28:16;40.20;16.70
6627;DHT22;3349;49.830;8.748;2022-08-02T10:30:45;40.90;16.80
6627;DHT22;3349;49.830;8.748;2022-08-02T10:33:16;40.80;16.80
6627;DHT22;3349;49.830;8.748;2022-08-02T10:35:46;40.50;16.90
6627;DHT22;3349;49.830;8.748;2022-08-02T10:38:16;41.70;16.50
6627;DHT22;3349;49.830;8.748;2022-08-02T10:40:44;41.60;16.70
6627;DHT22;3349;49.830;8.748;2022-08-02T10:43:12;42.80;16.00
6627;DHT22;3349;49.830;8.748;2022-08-02T10:46:20;41.50;15.30
6627;DHT22;3349;49.830;8.748;2022-08-02T10:49:18;42.60;15.60
6627;DHT22;3349;49.830;8.748;2022-08-02T10:52:04;42.90;15.20
6627;DHT22;3349;49.830;8.748;2022-08-02T10:54:34;43.00;14.60
6627;DHT22;3349;49.830;8.748;2022-08-02T10:57:13;43.70;14.60
6627;DHT22;3349;49.830;8.748;2022-08-02T10:59:41;43.30;14.00
6627;DHT22;3349;49.830;8.748;2022-08-02T11:02:08;43.80;13.60
6627;DHT22;3349;49.830;8.748;2022-08-02T11:05:01;43.20;13.90
6627;DHT22;3349;49.830;8.748;2022-08-02T11:07:34;44.20;14.10
6627;DHT22;3349;49.830;8.748;2022-08-02T11:10:35;44.00;14.10
6627;DHT22;3349;49.830;8.748;2022-08-02T11:13:12;43.30;13.90
6627;DHT22;3349;49.830;8.748;2022-08-02T11:16:00;41.90;14.90
6627;DHT22;3349;49.830;8.748;2022-08-02T11:21:33;41.40;15.60
6627;DHT22;3349;49.830;8.748;2022-08-02T11:24:22;41.30;15.20
6627;DHT22;3349;49.830;8.748;2022-08-02T11:26:50;40.50;15.10
6627;DHT22;3349;49.830;8.748;2022-08-02T11:29:17;41.90;14.90
6627;DHT22;3349;49.830;8.748;2022-08-02T11:31:45;43.50;13.70
6627;DHT22;3349;49.830;8.748;2022-08-02T11:34:12;41.50;13.80
6627;DHT22;3349;49.830;8.748;2022-08-02T11:36:49;42.40;14.00
6627;DHT22;3349;49.830;8.748;2022-08-02T11:39:18;43.30;14.30
6627;DHT22;3349;49.830;8.748;2022-08-02T11:41:48;44.50;13.80
6627;DHT22;3349;49.830;8.748;2022-08-02T11:44:16;44.20;12.90
6627;DHT22;3349;49.830;8.748;2022-08-02T11:46:43;43.70;13.20
6627;DHT22;3349;49.830;8.748;2022-08-02T11:49:14;43.50;13.20
6627;DHT22;3349;49.830;8.748;2022-08-02T11:51:57;41.70;13.60
6627;DHT22;3349;49.830;8.748;2022-08-02T11:54:28;41.10;14.60
6627;DHT22;3349;49.830;8.748;2022-08-02T11:57:09;40.40;15.60
6627;DHT22;3349;49.830;8.748;2022-08-02T11:59:36;40.70;15.30
6627;DHT22;3349;49.830;8.748;2022-08-02T12:02:04;41.30;15.10
6627;DHT22;3349;49.830;8.748;2022-08-02T12:04:31;41.00;14.50
6627;DHT22;3349;49.830;8.748;2022-08-02T12:07:00;41.40;14.40
6627;DHT22;3349;49.830;8.748;2022-08-02T12:09:30;41.50;14.60
6627;DHT22;3349;49.830;8.748;2022-08-02T12:11:57;41.30;14.50
6627;DHT22;3349;49.830;8.748;2022-08-02T12:14:25;41.30;15.10
6627;DHT22;3349;49.830;8.748;2022-08-02T12:16:52;41.00;15.30
6627;DHT22;3349;49.830;8.748;2022-08-02T12:19:37;40.70;15.50
6627;DHT22;3349;49.830;8.748;2022-08-02T12:22:14;40.60;15.70
6627;DHT22;3349;49.830;8.748;2022-08-02T12:24:45;40.30;16.10
6627;DHT22;3349;49.830;8.748;2022-08-02T12:27:28;39.50;16.00
6627;DHT22;3349;49.830;8.748;2022-08-02T12:29:59;39.10;16.70
6627;DHT22;3349;49.830;8.748;2022-08-02T12:32:27;38.30;16.70
6627;DHT22;3349;49.830;8.748;2022-08-02T12:35:09;38.30;17.50
6627;DHT22;3349;49.830;8.748;2022-08-02T12:37:38;37.20;18.60
6627;DHT22;3349;49.830;8.748;2022-08-02T12:40:23;37.40;18.20
6627;DHT22;3349;49.830;8.748;2022-08-02T12:42:52;38.30;17.40
6627;DHT22;3349;49.830;8.748;2022-08-02T12:45:20;37.10;17.80
6627;DHT22;3349;49.830;8.748;2022-08-02T12:47:48;36.10;18.40
6627;DHT22;3349;49.830;8.748;2022-08-02T12:50:18;35.40;19.20
6627;DHT22;3349;49.830;8.748;2022-08-02T12:52:47;34.70;20.30
6627;DHT22;3349;49.830;8.748;2022-08-02T12:55:16;34.50;20.20
6627;DHT22;3349;49.830;8.748;2022-08-02T12:57:55;34.60;20.50
6627;DHT22;3349;49.830;8.748;2022-08-02T13:00:25;34.10;21.00
6627;DHT22;3349;49.830;8.748;2022-08-02T13:02:52;33.60;21.20
6627;DHT22;3349;49.830;8.748;2022-08-02T13:05:19;33.80;21.70
6627;DHT22;3349;49.830;8.748;2022-08-02T13:07:47;33.20;21.40
6627;DHT22;3349;49.830;8.748;2022-08-02T13:10:14;33.10;21.70
6627;DHT22;3349;49.830;8.748;2022-08-02T13:12:41;33.30;21.40
6627;DHT22;3349;49.830;8.748;2022-08-02T13:15:08;33.10;21.60
6627;DHT22;3349;49.830;8.748;2022-08-02T13:17:36;33.50;21.60
6627;DHT22;3349;49.830;8.748;2022-08-02T13:20:03;33.50;21.70
6627;DHT22;3349;49.830;8.748;2022-08-02T13:22:30;33.70;21.60
6627;DHT22;3349;49.830;8.748;2022-08-02T13:24:58;34.50;20.80
6627;DHT22;3349;49.830;8.748;2022-08-02T13:27:25;35.10;20.60
6627;DHT22;3349;49.830;8.748;2022-08-02T13:29:54;35.40;20.20
6627;DHT22;3349;49.830;8.748;2022-08-02T13:32:21;34.90;20.30
6627;DHT22;3349;49.830;8.748;2022-08-02T13:34:48;34.50;20.60
6627;DHT22;3349;49.830;8.748;2022-08-02T13:37:15;34.00;20.70
6627;DHT22;3349;49.830;8.748;2022-08-02T13:39:42;33.70;21.00
6627;DHT22;3349;49.830;8.748;2022-08-02T13:42:10;33.40;21.20
6627;DHT22;3349;49.830;8.748;2022-08-02T13:44:37;32.80;21.70
6627;DHT22;3349;49.830;8.748;2022-08-02T13:47:04;32.50;22.40
6627;DHT22;3349;49.830;8.748;2022-08-02T13:49:32;32.30;22.70
6627;DHT22;3349;49.830;8.748;2022-08-02T13:51:59;31.80;23.00
6627;DHT22;3349;49.830;8.748;2022-08-02T13:54:26;31.40;23.40
6627;DHT22;3349;49.830;8.748;2022-08-02T13:56:52;31.30;23.40
6627;DHT22;3349;49.830;8.748;2022-08-02T13:59:20;31.20;23.40
6627;DHT22;3349;49.830;8.748;2022-08-02T14:01:47;31.30;23.60
6627;DHT22;3349;49.830;8.748;2022-08-02T14:04:14;31.10;23.40
6627;DHT22;3349;49.830;8.748;2022-08-02T14:06:40;31.00;23.30
6627;DHT22;3349;49.830;8.748;2022-08-02T14:09:07;31.10;23.70
6627;DHT22;3349;49.830;8.748;2022-08-02T14:11:34;30.90;23.30
6627;DHT22;3349;49.830;8.748;2022-08-02T14:14:01;30.90;23.20
6627;DHT22;3349;49.830;8.748;2022-08-02T14:16:29;30.90;23.80
6627;DHT22;3349;49.830;8.748;2022-08-02T14:18:56;30.90;23.30
6627;DHT22;3349;49.830;8.748;2022-08-02T14:21:23;30.60;23.80
6627;DHT22;3349;49.830;8.748;2022-08-02T14:23:49;30.40;24.10
6627;DHT22;3349;49.830;8.748;2022-08-02T14:26:16;30.20;24.00
6627;DHT22;3349;49.830;8.748;2022-08-02T14:28:43;30.30;24.50
6627;DHT22;3349;49.830;8.748;2022-08-02T14:31:10;30.50;24.00
6627;DHT22;3349;49.830;8.748;2022-08-02T14:33:38;30.50;23.80
6627;DHT22;3349;49.830;8.748;2022-08-02T14:36:05;30.90;23.70
6627;DHT22;3349;49.830;8.748;2022-08-02T14:38:32;31.10;23.30
6627;DHT22;3349;49.830;8.748;2022-08-02T14:41:00;31.40;23.30
6627;DHT22;3349;49.830;8.748;2022-08-02T14:43:27;31.90;21.90
6627;DHT22;3349;49.830;8.748;2022-08-02T14:46:11;32.40;21.30
6627;DHT22;3349;49.830;8.748;2022-08-02T14:48:39;32.50;20.90
6627;DHT22;3349;49.830;8.748;2022-08-02T14:51:06;32.90;20.90
6627;DHT22;3349;49.830;8.748;2022-08-02T14:53:32;33.40;20.00
6627;DHT22;3349;49.830;8.748;2022-08-02T14:55:59;33.40;19.40
6627;DHT22;3349;49.830;8.748;2022-08-02T14:58:26;34.10;19.40
6627;DHT22;3349;49.830;8.748;2022-08-02T15:01:05;34.30;18.80
6627;DHT22;3349;49.830;8.748;2022-08-02T15:03:32;35.10;17.70
6627;DHT22;3349;49.830;8.748;2022-08-02T15:06:00;35.40;18.00
6627;DHT22;3349;49.830;8.748;2022-08-02T15:08:26;35.20;17.70
6627;DHT22;3349;49.830;8.748;2022-08-02T15:10:53;34.90;17.80
6627;DHT22;3349;49.830;8.748;2022-08-02T15:13:20;35.20;18.00
6627;DHT22;3349;49.830;8.748;2022-08-02T15:15:46;35.10;17.90
6627;DHT22;3349;49.830;8.748;2022-08-02T15:18:13;35.30;18.00
6627;DHT22;3349;49.830;8.748;2022-08-02T15:20:40;35.70;18.80
6627;DHT22;3349;49.830;8.748;2022-08-02T15:23:08;35.40;17.70
6627;DHT22;3349;49.830;8.748;2022-08-02T15:25:35;35.20;18.00
6627;DHT22;3349;49.830;8.748;2022-08-02T15:28:02;35.80;17.10
6627;DHT22;3349;49.830;8.748;2022-08-02T15:30:32;36.00;17.00
6627;DHT22;3349;49.830;8.748;2022-08-02T15:32:59;36.00;15.40
6627;DHT22;3349;49.830;8.748;2022-08-02T15:35:26;36.30;15.40
6627;DHT22;3349;49.830;8.748;2022-08-02T15:37:53;36.30;15.70
6627;DHT22;3349;49.830;8.748;2022-08-02T15:40:22;35.30;16.00
6627;DHT22;3349;49.830;8.748;2022-08-02T15:42:49;35.00;16.70
6627;DHT22;3349;49.830;8.748;2022-08-02T15:45:16;35.10;17.60
6627;DHT22;3349;49.830;8.748;2022-08-02T15:47:43;34.50;17.60
6627;DHT22;3349;49.830;8.748;2022-08-02T15:50:11;34.40;17.00
6627;DHT22;3349;49.830;8.748;2022-08-02T15:52:38;34.20;17.50
6627;DHT22;3349;49.830;8.748;2022-08-02T15:55:05;34.00;17.40
6627;DHT22;3349;49.830;8.748;2022-08-02T15:57:33;33.60;17.50
6627;DHT22;3349;49.830;8.748;2022-08-02T16:00:00;33.10;17.60
6627;DHT22;3349;49.830;8.748;2022-08-02T16:02:26;32.80;17.70
6627;DHT22;3349;49.830;8.748;2022-08-02T16:04:53;33.00;18.20
6627;DHT22;3349;49.830;8.748;2022-08-02T16:07:20;32.60;18.40
6627;DHT22;3349;49.830;8.748;2022-08-02T16:09:47;32.40;18.20
6627;DHT22;3349;49.830;8.748;2022-08-02T16:12:13;32.30;18.20
6627;DHT22;3349;49.830;8.748;2022-08-02T16:14:41;32.30;18.30
6627;DHT22;3349;49.830;8.748;2022-08-02T16:17:08;32.00;19.70
6627;DHT22;3349;49.830;8.748;2022-08-02T16:19:35;31.90;20.90
6627;DHT22;3349;49.830;8.748;2022-08-02T16:22:02;31.70;21.20